Time;durP1;ratioP1;P1;durP2;ratioP2;P2;SDS_P1;SDS_P2;PMS_P1;PMS_P2;Temp;Humidity;BMP_temperature;BMP_pressure;BME280_temperature;BME280_humidity;BME280_pressure;Samples;Min_cycle;Max_cycle;Signal;HPM_P1;HPM_P2
2024/02/07 00:02:09;;;;;;;25.77;14.50;;;7.20;99.90;;;;;;5032010;28;20394;-76
2024/02/07 00:04:35;;;;;;;26.90;14.23;;;7.20;99.90;;;;;;5032239;28;20108;-76
2024/02/07 00:07:01;;;;;;;29.70;14.97;;;7.20;99.90;;;;;;5032887;28;20035;-75
2024/02/07 00:09:26;;;;;;;25.57;15.20;;;7.20;99.90;;;;;;5033392;28;20024;-76
2024/02/07 00:11:52;;;;;;;28.33;16.37;;;7.20;99.90;;;;;;5033530;28;20068;-75
2024/02/07 00:14:18;;;;;;;30.63;16.20;;;7.20;99.90;;;;;;5033837;28;20033;-76
2024/02/07 00:16:43;;;;;;;30.15;16.50;;;7.20;99.90;;;;;;5030816;28;20033;-75
2024/02/07 00:19:09;;;;;;;28.93;15.03;;;7.20;99.90;;;;;;5032426;28;20033;-76
2024/02/07 00:21:35;;;;;;;28.30;14.27;;;7.20;99.90;;;;;;5032415;28;20029;-76
2024/02/07 00:24:00;;;;;;;27.13;14.70;;;7.20;99.90;;;;;;5030840;28;20052;-76
2024/02/07 00:26:26;;;;;;;22.97;13.10;;;7.20;99.90;;;;;;5032310;28;20044;-76
2024/02/07 00:28:52;;;;;;;25.17;14.73;;;7.20;99.90;;;;;;5032557;28;20033;-76
2024/02/07 00:31:17;;;;;;;22.70;11.97;;;7.20;99.90;;;;;;5035109;28;20318;-76
2024/02/07 00:33:43;;;;;;;28.57;13.97;;;7.20;99.90;;;;;;5051566;28;20132;-76
2024/02/07 00:36:09;;;;;;;26.10;14.75;;;7.20;99.90;;;;;;5051472;28;20560;-75
2024/02/07 00:38:34;;;;;;;27.27;14.50;;;7.20;99.90;;;;;;5051660;28;20029;-75
2024/02/07 00:41:00;;;;;;;25.47;13.53;;;7.30;99.90;;;;;;5051413;28;20040;-76
2024/02/07 00:43:26;;;;;;;23.97;12.83;;;7.30;99.90;;;;;;5050580;28;20020;-76
2024/02/07 00:45:51;;;;;;;23.50;13.15;;;7.20;99.90;;;;;;5050647;28;20127;-75
2024/02/07 00:48:17;;;;;;;23.80;13.03;;;7.20;99.90;;;;;;5051336;28;20033;-75
2024/02/07 00:50:43;;;;;;;22.70;12.50;;;7.20;99.90;;;;;;5051939;28;20040;-75
2024/02/07 00:53:08;;;;;;;24.97;12.83;;;7.20;99.90;;;;;;5050484;28;20203;-75
2024/02/07 00:55:34;;;;;;;19.77;12.73;;;7.20;99.90;;;;;;5050272;28;20521;-76
2024/02/07 00:57:59;;;;;;;22.92;13.35;;;7.20;99.90;;;;;;5051280;28;20055;-76
2024/02/07 01:00:25;;;;;;;21.83;12.80;;;7.20;99.90;;;;;;5050204;28;20029;-75
2024/02/07 01:02:51;;;;;;;26.75;15.45;;;7.10;99.90;;;;;;5051554;28;20048;-75
2024/02/07 01:05:18;;;;;;;22.95;12.88;;;7.10;99.90;;;;;;5051414;28;20560;-76
2024/02/07 01:07:43;;;;;;;21.33;12.55;;;7.20;99.90;;;;;;5051506;28;20490;-76
2024/02/07 01:10:10;;;;;;;20.53;12.40;;;7.20;99.90;;;;;;5039124;28;20032;-76
2024/02/07 01:12:35;;;;;;;;;;;7.20;99.90;;;;;;5031591;28;20299;-75
2024/02/07 01:15:01;;;;;;;25.73;12.60;;;7.20;99.90;;;;;;5031127;28;20378;-75
2024/02/07 01:17:27;;;;;;;25.03;14.07;;;7.20;99.90;;;;;;5030286;28;20028;-75
2024/02/07 01:19:53;;;;;;;22.53;12.80;;;7.20;99.90;;;;;;5030745;28;20127;-75
2024/02/07 01:22:19;;;;;;;22.98;13.57;;;7.20;99.90;;;;;;5031624;28;20087;-75
2024/02/07 01:24:45;;;;;;;27.08;13.35;;;7.20;99.90;;;;;;5030919;28;20036;-75
2024/02/07 01:27:10;;;;;;;27.27;14.10;;;7.20;99.90;;;;;;5030701;28;20021;-75
2024/02/07 01:29:37;;;;;;;31.17;15.13;;;7.20;99.90;;;;;;5035868;28;20402;-75
2024/02/07 01:32:04;;;;;;;27.27;14.45;;;7.20;99.90;;;;;;5039761;28;20417;-75
2024/02/07 01:34:29;;;;;;;26.38;14.52;;;7.20;99.90;;;;;;5050122;28;20025;-75
2024/02/07 01:36:55;;;;;;;26.70;14.80;;;7.20;99.90;;;;;;5048854;28;20028;-75
2024/02/07 01:39:22;;;;;;;29.27;14.43;;;7.10;99.90;;;;;;5049016;28;20033;-74
2024/02/07 01:41:57;;;;;;;27.58;14.48;;;7.10;99.90;;;;;;5049010;28;20044;-75
2024/02/07 01:44:23;;;;;;;22.92;12.88;;;7.10;99.90;;;;;;5048678;28;20036;-75
2024/02/07 01:46:49;;;;;;;26.05;13.52;;;7.10;99.90;;;;;;5030362;28;20041;-75
2024/02/07 01:49:15;;;;;;;;;;;7.10;99.90;;;;;;5031358;28;20558;-74
2024/02/07 01:51:42;;;;;;;22.85;12.43;;;7.10;99.90;;;;;;5030920;28;19948;-74
2024/02/07 01:54:08;;;;;;;26.70;13.55;;;7.10;99.90;;;;;;5029332;28;20057;-75
2024/02/07 01:56:34;;;;;;;24.75;13.32;;;7.10;99.90;;;;;;5028610;28;20140;-75
2024/02/07 01:59:04;;;;;;;22.42;13.20;;;7.10;99.90;;;;;;5029421;28;20033;-74
2024/02/07 02:01:32;;;;;;;24.15;13.20;;;7.00;99.90;;;;;;5030145;28;20135;-75
2024/02/07 02:03:58;;;;;;;22.17;13.13;;;7.00;99.90;;;;;;5029325;28;20025;-75
2024/02/07 02:06:24;;;;;;;29.93;13.70;;;7.10;99.90;;;;;;5028681;28;20035;-74
2024/02/07 02:08:50;;;;;;;25.67;12.38;;;7.10;99.90;;;;;;5028800;28;20630;-75
2024/02/07 02:11:21;;;;;;;22.63;11.83;;;7.10;99.90;;;;;;5030052;28;20029;-75
2024/02/07 02:13:49;;;;;;;24.52;11.95;;;7.10;99.90;;;;;;5030496;28;20033;-75
2024/02/07 02:16:15;;;;;;;19.75;10.77;;;7.10;99.90;;;;;;5029122;28;20056;-76
2024/02/07 02:18:41;;;;;;;18.37;10.63;;;7.10;99.90;;;;;;5029891;28;20022;-76
2024/02/07 02:21:09;;;;;;;22.73;9.80;;;7.10;99.90;;;;;;5030309;28;20032;-75
2024/02/07 02:24:11;;;;;;;20.00;11.43;;;7.20;99.90;;;;;;5028702;28;20594;-75
2024/02/07 02:26:50;;;;;;;22.45;11.30;;;7.20;99.90;;;;;;5030707;28;20029;-75
2024/02/07 02:29:21;;;;;;;18.42;10.65;;;7.20;99.90;;;;;;5029742;28;20025;-75
2024/02/07 02:31:52;;;;;;;25.25;12.38;;;7.20;99.90;;;;;;5035693;28;20040;-75
2024/02/07 02:34:19;;;;;;;24.48;12.43;;;7.20;99.90;;;;;;5050050;28;20043;-75
2024/02/07 02:36:45;;;;;;;22.48;12.48;;;7.20;99.90;;;;;;5049808;28;20036;-75
2024/02/07 02:39:10;;;;;;;20.38;11.43;;;7.20;99.90;;;;;;5049899;28;20028;-76
2024/02/07 02:41:36;;;;;;;19.92;10.55;;;7.20;99.90;;;;;;5050211;28;20037;-76
2024/02/07 02:44:02;;;;;;;24.07;12.70;;;7.20;99.90;;;;;;5050078;28;20154;-75
2024/02/07 02:46:27;;;;;;;25.07;13.87;;;7.10;99.90;;;;;;5048401;28;20021;-75
2024/02/07 02:48:53;;;;;;;24.50;13.00;;;7.10;99.90;;;;;;5049442;28;20268;-76
2024/02/07 02:51:20;;;;;;;28.27;13.93;;;7.20;99.90;;;;;;5048379;28;20125;-76
2024/02/07 02:53:46;;;;;;;22.73;13.68;;;7.20;99.90;;;;;;5048629;28;20040;-76
2024/02/07 02:56:12;;;;;;;24.00;13.60;;;7.10;99.90;;;;;;5048789;28;20510;-75
2024/02/07 02:58:38;;;;;;;20.77;11.73;;;7.10;99.90;;;;;;5050421;28;20029;-75
2024/02/07 03:01:04;;;;;;;24.08;11.23;;;7.10;99.90;;;;;;5050179;28;20037;-75
2024/02/07 03:03:31;;;;;;;22.15;12.35;;;7.10;99.90;;;;;;5050115;28;20033;-75
2024/02/07 03:06:00;;;;;;;19.45;11.70;;;7.10;99.90;;;;;;5048116;28;20057;-75
2024/02/07 03:08:39;;;;;;;19.58;11.25;;;7.10;99.90;;;;;;5049747;28;20550;-75
2024/02/07 03:11:11;;;;;;;22.80;11.68;;;7.10;99.90;;;;;;5049733;28;20058;-75
2024/02/07 03:13:37;;;;;;;21.33;11.32;;;7.10;99.90;;;;;;5049707;28;20128;-75
2024/02/07 03:16:12;;;;;;;30.10;15.45;;;7.20;99.90;;;;;;5053718;28;20021;-74
2024/02/07 03:18:38;;;;;;;30.90;16.30;;;7.10;99.90;;;;;;5054832;28;20037;-74
2024/02/07 03:21:05;;;;;;;27.13;16.17;;;7.10;99.90;;;;;;5052822;28;20021;-73
2024/02/07 03:23:34;;;;;;;28.70;16.63;;;7.10;99.90;;;;;;5052273;28;20124;-75
2024/02/07 03:26:01;;;;;;;38.15;18.50;;;7.00;99.90;;;;;;5051941;28;20079;-74
2024/02/07 03:28:27;;;;;;;31.33;17.90;;;7.10;99.90;;;;;;5053397;28;20057;-74
2024/02/07 03:30:53;;;;;;;33.22;17.60;;;7.00;99.90;;;;;;5045837;28;20037;-74
2024/02/07 03:33:19;;;;;;;34.67;17.90;;;6.90;99.90;;;;;;5051291;28;20029;-75
2024/02/07 03:35:45;;;;;;;35.90;18.33;;;6.90;99.90;;;;;;5053235;28;20521;-75
2024/02/07 03:38:12;;;;;;;34.78;18.63;;;6.90;99.90;;;;;;5053058;28;20397;-74
2024/02/07 03:40:37;;;;;;;34.60;20.88;;;6.90;99.90;;;;;;5052870;28;20031;-75
2024/02/07 03:43:03;;;;;;;33.42;18.15;;;6.90;99.90;;;;;;5051447;28;20032;-75
2024/02/07 03:45:32;;;;;;;35.20;18.67;;;6.90;99.90;;;;;;5034695;28;20029;-75
2024/02/07 03:47:58;;;;;;;33.05;19.48;;;6.90;99.90;;;;;;5031563;28;20306;-75
2024/02/07 03:50:25;;;;;;;35.17;20.33;;;6.90;99.90;;;;;;5032934;28;20037;-75
2024/02/07 03:52:51;;;;;;;36.53;20.80;;;6.90;99.90;;;;;;5031134;28;20061;-76
2024/02/07 03:55:18;;;;;;;37.55;19.67;;;7.00;99.90;;;;;;5031300;28;20116;-75
2024/02/07 03:57:44;;;;;;;36.90;19.77;;;6.90;99.90;;;;;;5032637;28;20035;-75
2024/02/07 04:00:13;;;;;;;35.05;19.90;;;6.90;99.90;;;;;;5031421;28;20026;-75
2024/02/07 04:02:39;;;;;;;32.45;19.08;;;6.90;99.90;;;;;;5033068;28;20118;-74
2024/02/07 04:05:07;;;;;;;;;;;6.90;99.90;;;;;;5032501;28;20024;-74
2024/02/07 04:07:33;;;;;;;38.28;19.77;;;6.90;99.90;;;;;;5047582;28;19945;-75
2024/02/07 04:09:59;;;;;;;39.85;19.92;;;6.90;99.90;;;;;;5032216;28;20036;-75
2024/02/07 05:17:17;;;;;;;40.08;20.65;;;6.70;99.90;;;;;;5031785;28;20057;-78
2024/02/07 05:19:44;;;;;;;40.85;22.10;;;6.70;99.90;;;;;;5032439;28;20032;-78
2024/02/07 05:22:11;;;;;;;39.38;20.45;;;6.70;99.90;;;;;;5063540;28;20617;-78
2024/02/07 05:24:38;;;;;;;36.63;20.70;;;6.70;99.90;;;;;;5046741;28;20033;-78
2024/02/07 05:27:06;;;;;;;40.03;21.15;;;6.70;99.90;;;;;;5031335;28;20026;-77
2024/02/07 05:29:35;;;;;;;38.30;20.05;;;6.70;99.90;;;;;;5029437;28;20116;-77
2024/02/07 05:32:01;;;;;;;43.58;20.98;;;6.70;99.90;;;;;;5039291;28;20047;-76
2024/02/07 05:34:27;;;;;;;35.70;20.73;;;6.70;99.90;;;;;;5029582;28;20061;-76
2024/02/07 05:36:53;;;;;;;39.10;19.58;;;6.70;99.90;;;;;;5031194;28;20477;-76
2024/02/07 05:39:19;;;;;;;35.37;20.00;;;6.70;99.90;;;;;;5019219;28;20054;-76
2024/02/07 05:41:45;;;;;;;;;;;6.70;99.90;;;;;;5024666;28;20029;-76
2024/02/07 05:44:11;;;;;;;37.40;18.60;;;6.70;99.90;;;;;;5023986;28;20032;-75
2024/02/07 05:46:37;;;;;;;39.47;20.05;;;6.70;99.90;;;;;;5023241;28;20538;-76
2024/02/07 05:49:03;;;;;;;36.17;19.63;;;6.70;99.90;;;;;;5023345;28;20039;-76
2024/02/07 05:51:29;;;;;;;35.10;20.60;;;6.60;99.90;;;;;;5028088;28;20030;-76
2024/02/07 05:53:54;;;;;;;37.47;21.10;;;6.70;99.90;;;;;;5031736;28;20136;-76
2024/02/07 05:56:20;;;;;;;33.60;19.53;;;6.60;99.90;;;;;;5028404;28;20024;-76
2024/02/07 05:58:51;;;;;;;39.65;20.08;;;6.60;99.90;;;;;;5034059;28;20028;-76
2024/02/07 06:01:17;;;;;;;41.60;20.33;;;6.60;99.90;;;;;;5033405;28;20030;-75
2024/02/07 06:04:05;;;;;;;39.15;20.20;;;6.70;99.90;;;;;;5027186;28;20402;-76
2024/02/07 06:06:31;;;;;;;35.83;18.77;;;6.70;99.90;;;;;;5025788;28;20027;-76
2024/02/07 06:08:58;;;;;;;36.67;19.70;;;6.70;99.90;;;;;;5028960;28;20112;-76
2024/02/07 06:11:31;;;;;;;38.95;20.15;;;6.70;99.90;;;;;;5026781;28;20030;-76
2024/02/07 06:13:58;;;;;;;36.83;19.45;;;6.70;99.90;;;;;;5029327;28;20095;-76
2024/02/07 06:16:24;;;;;;;38.05;20.35;;;6.60;99.90;;;;;;5029043;28;20025;-76
2024/02/07 06:18:49;;;;;;;30.95;17.08;;;6.60;99.90;;;;;;5029564;28;20037;-75
2024/02/07 06:21:16;;;;;;;34.77;18.10;;;6.60;99.90;;;;;;5020098;28;20487;-75
2024/02/07 06:23:41;;;;;;;29.88;15.52;;;6.60;99.90;;;;;;5028685;28;20026;-76
2024/02/07 06:26:08;;;;;;;29.60;15.17;;;6.70;99.90;;;;;;5028869;28;20037;-76
2024/02/07 06:28:33;;;;;;;26.08;14.23;;;6.60;99.90;;;;;;5025193;28;20288;-76
2024/02/07 06:30:59;;;;;;;26.17;14.83;;;6.60;99.90;;;;;;5031652;28;20402;-76
2024/02/07 06:33:24;;;;;;;26.47;14.60;;;6.60;99.90;;;;;;5029091;28;20037;-75
2024/02/07 06:35:50;;;;;;;25.47;15.50;;;6.70;99.90;;;;;;5029959;28;20037;-76
2024/02/07 06:38:16;;;;;;;33.43;15.53;;;6.70;99.90;;;;;;5032042;28;20079;-76
2024/02/07 06:40:41;;;;;;;33.50;16.73;;;6.60;99.90;;;;;;5020968;28;20033;-76
2024/02/07 06:43:07;;;;;;;29.57;14.47;;;6.70;99.90;;;;;;5028283;28;20025;-76
2024/02/07 06:45:33;;;;;;;28.17;15.47;;;6.70;99.90;;;;;;5026019;28;20291;-76
2024/02/07 06:47:58;;;;;;;28.13;14.20;;;6.70;99.90;;;;;;5033072;28;20048;-76
2024/02/07 06:50:24;;;;;;;24.73;13.07;;;6.70;99.90;;;;;;5040638;28;20113;-75
2024/02/07 06:52:50;;;;;;;31.27;14.07;;;6.70;99.90;;;;;;5034838;28;20330;-76
2024/02/07 06:55:16;;;;;;;25.65;13.15;;;6.70;99.90;;;;;;5032224;28;20385;-76
2024/02/07 06:57:42;;;;;;;25.95;12.77;;;6.70;99.90;;;;;;5032989;28;20038;-77
2024/02/07 07:00:08;;;;;;;27.00;13.27;;;6.70;99.90;;;;;;5031889;28;20041;-76
2024/02/07 07:02:34;;;;;;;22.30;12.85;;;6.70;99.90;;;;;;5034360;28;20030;-74
2024/02/07 07:04:59;;;;;;;20.47;12.00;;;6.80;99.90;;;;;;5036503;28;20044;-74
2024/02/07 07:07:25;;;;;;;22.60;12.50;;;6.80;99.90;;;;;;5031277;28;20021;-75
2024/02/07 07:09:51;;;;;;;26.38;13.88;;;6.80;99.90;;;;;;5036744;28;20081;-74
2024/02/07 07:12:16;;;;;;;21.40;12.00;;;6.80;99.90;;;;;;5065730;28;20045;-73
2024/02/07 07:14:43;;;;;;;27.13;12.60;;;6.90;99.90;;;;;;5066482;28;20044;-80
2024/02/07 07:17:09;;;;;;;29.00;13.80;;;6.90;99.90;;;;;;5034220;28;20044;-78
2024/02/07 07:19:35;;;;;;;23.15;13.02;;;6.90;99.90;;;;;;5074653;28;20037;-78
2024/02/07 07:22:00;;;;;;;31.15;13.27;;;7.00;99.90;;;;;;5044428;28;20239;-78
2024/02/07 07:24:26;;;;;;;24.37;13.40;;;6.90;99.90;;;;;;5044557;28;20092;-78
2024/02/07 07:26:51;;;;;;;33.77;12.27;;;7.00;99.90;;;;;;5042537;28;20886;-78
2024/02/07 07:29:17;;;;;;;23.87;12.83;;;7.10;99.90;;;;;;5038195;28;20025;-77
2024/02/07 07:31:44;;;;;;;26.35;13.15;;;7.10;99.90;;;;;;5043688;28;20487;-78
2024/02/07 07:34:10;;;;;;;29.65;15.85;;;7.20;99.90;;;;;;5028442;28;20049;-78
2024/02/07 07:36:35;;;;;;;39.00;16.60;;;7.30;99.90;;;;;;5034322;28;20036;-78
2024/02/07 07:39:01;;;;;;;32.33;16.27;;;7.40;99.90;;;;;;5042265;28;20021;-77
2024/02/07 07:41:27;;;;;;;30.77;16.98;;;7.40;99.90;;;;;;5039990;28;20052;-77
2024/02/07 07:43:53;;;;;;;36.70;16.40;;;7.40;99.90;;;;;;5035179;28;20033;-78
2024/02/07 07:46:19;;;;;;;26.23;14.87;;;7.50;99.90;;;;;;5042045;28;20283;-78
2024/02/07 07:48:45;;;;;;;33.78;16.70;;;7.50;99.90;;;;;;5041696;28;20283;-77
2024/02/07 07:51:12;;;;;;;26.77;13.73;;;7.60;99.90;;;;;;5038045;28;20038;-77
2024/02/07 07:53:38;;;;;;;25.08;13.02;;;7.60;99.90;;;;;;5043433;28;20041;-77
2024/02/07 07:56:03;;;;;;;21.88;12.35;;;7.60;99.90;;;;;;5042248;28;20032;-77
2024/02/07 07:58:29;;;;;;;27.33;13.15;;;7.60;99.90;;;;;;5042840;28;20111;-77
2024/02/07 08:00:55;;;;;;;29.93;12.63;;;7.70;99.90;;;;;;5041691;28;20033;-77
2024/02/07 08:03:20;;;;;;;30.23;12.90;;;7.80;99.90;;;;;;5038222;28;20025;-77
2024/02/07 08:05:46;;;;;;;39.30;14.07;;;8.00;99.90;;;;;;5037959;28;20102;-77
2024/02/07 08:08:12;;;;;;;23.13;11.48;;;8.20;99.90;;;;;;5042211;28;20092;-76
2024/02/07 08:10:37;;;;;;;24.63;11.53;;;8.20;99.90;;;;;;5040192;28;20494;-76
2024/02/07 08:13:04;;;;;;;24.42;10.95;;;8.30;99.90;;;;;;5047706;28;20044;-76
2024/02/07 08:15:29;;;;;;;23.17;11.38;;;8.30;99.90;;;;;;5045065;28;20041;-77
2024/02/07 08:17:57;;;;;;;24.83;12.80;;;8.30;99.90;;;;;;5042019;28;20075;-78
2024/02/07 08:20:24;;;;;;;24.50;12.23;;;8.20;99.90;;;;;;5039549;28;20484;-78
2024/02/07 08:22:49;;;;;;;24.85;11.98;;;8.30;99.90;;;;;;5040096;28;20114;-82
2024/02/07 08:25:15;;;;;;;25.30;12.10;;;8.40;99.90;;;;;;5041789;28;20025;-79
2024/02/07 08:27:41;;;;;;;23.73;12.43;;;8.60;99.90;;;;;;5045802;28;20017;-75
2024/02/07 08:30:07;;;;;;;23.87;11.60;;;8.60;99.90;;;;;;5041191;28;20033;-75
2024/02/07 08:32:33;;;;;;;;;;;8.80;99.90;;;;;;5043404;28;20037;-76
2024/02/07 08:34:59;;;;;;;22.48;11.57;;;9.00;99.90;;;;;;5043631;28;20389;-76
2024/02/07 08:37:26;;;;;;;31.95;13.30;;;9.20;99.90;;;;;;5037122;28;20510;-76
2024/02/07 08:39:55;;;;;;;31.15;13.45;;;9.20;99.90;;;;;;5035533;28;20390;-75
2024/02/07 08:42:20;;;;;;;26.02;11.23;;;9.30;99.90;;;;;;5039228;28;20386;-75
2024/02/07 08:44:46;;;;;;;28.70;12.30;;;9.30;99.90;;;;;;5044041;28;20033;-77
2024/02/07 08:47:12;;;;;;;26.93;10.53;;;9.40;99.90;;;;;;5035982;28;20013;-76
2024/02/07 08:49:37;;;;;;;22.83;11.47;;;11.40;97.40;;;;;;5039222;28;20520;-75
2024/02/07 08:52:03;;;;;;;25.67;9.93;;;12.60;92.30;;;;;;5042860;28;20033;-78
2024/02/07 08:54:32;;;;;;;26.33;10.70;;;13.20;91.00;;;;;;5038682;28;20378;-77
2024/02/07 08:56:57;;;;;;;17.42;10.55;;;12.70;90.10;;;;;;5040938;28;20433;-74
2024/02/07 08:59:23;;;;;;;24.47;10.63;;;12.60;91.10;;;;;;5037324;28;20030;-74
2024/02/07 09:01:49;;;;;;;24.03;11.10;;;12.20;90.30;;;;;;5030456;28;20036;-75
2024/02/07 09:04:14;;;;;;;18.57;11.17;;;11.60;91.60;;;;;;5041917;28;20030;-75
2024/02/07 09:06:40;;;;;;;22.40;10.97;;;10.90;93.30;;;;;;5047192;28;20099;-73
2024/02/07 09:09:06;;;;;;;19.30;10.40;;;10.60;93.90;;;;;;5036432;28;20039;-73
2024/02/07 09:11:31;;;;;;;27.17;10.57;;;11.70;91.80;;;;;;5038423;28;20037;-73
2024/02/07 09:13:57;;;;;;;25.17;10.57;;;11.70;91.90;;;;;;5035909;28;20128;-74
2024/02/07 09:16:23;;;;;;;24.30;9.70;;;12.00;91.60;;;;;;5034068;28;20033;-73
2024/02/07 09:18:48;;;;;;;17.47;9.33;;;12.50;87.70;;;;;;5044405;28;20116;-73
2024/02/07 09:21:17;;;;;;;13.57;8.40;;;13.30;84.40;;;;;;5039980;28;20041;-73
2024/02/07 09:23:44;;;;;;;23.02;9.88;;;14.30;84.10;;;;;;5041555;28;20486;-74
2024/02/07 09:26:10;;;;;;;20.98;8.88;;;15.80;75.50;;;;;;5038574;28;20510;-74
2024/02/07 09:28:36;;;;;;;18.33;9.60;;;16.90;72.00;;;;;;5078253;28;20025;-74
2024/02/07 09:31:01;;;;;;;16.37;8.40;;;15.90;71.20;;;;;;5039975;28;20526;-74
2024/02/07 09:33:27;;;;;;;19.67;9.43;;;16.60;71.20;;;;;;5042270;28;20302;-74
2024/02/07 09:35:52;;;;;;;22.77;10.10;;;15.80;71.00;;;;;;5048310;28;20040;-74
2024/02/07 09:38:21;;;;;;;25.23;8.93;;;15.80;72.80;;;;;;5040732;28;20076;-74
2024/02/07 09:40:55;;;;;;;16.73;9.73;;;14.30;75.90;;;;;;5072359;28;20124;-74
2024/02/07 09:43:22;;;;;;;19.23;8.75;;;13.30;79.30;;;;;;5040006;28;20085;-75
2024/02/07 09:45:55;;;;;;;17.92;9.90;;;12.90;84.20;;;;;;5041608;28;20029;-74
2024/02/07 09:48:22;;;;;;;17.80;8.88;;;12.50;83.50;;;;;;5039182;28;20025;-74
2024/02/07 09:50:48;;;;;;;24.17;9.35;;;12.70;84.10;;;;;;5042428;28;20029;-74
2024/02/07 09:53:15;;;;;;;16.55;8.82;;;13.30;82.40;;;;;;5040952;28;20041;-74
2024/02/07 09:55:41;;;;;;;15.20;8.57;;;13.70;80.80;;;;;;5039547;28;20521;-74
2024/02/07 09:58:08;;;;;;;;;;;14.00;79.60;;;;;;5072174;28;20052;-74
2024/02/07 10:00:35;;;;;;;14.03;8.00;;;13.90;80.50;;;;;;5042653;28;20268;-74
2024/02/07 10:03:05;;;;;;;13.75;8.73;;;13.90;79.90;;;;;;5037961;28;20029;-74
2024/02/07 10:05:33;;;;;;;13.05;8.07;;;13.90;79.10;;;;;;5043014;28;20030;-76
2024/02/07 10:08:00;;;;;;;15.18;9.05;;;14.30;80.20;;;;;;5039249;28;20033;-75
2024/02/07 10:10:26;;;;;;;26.90;10.20;;;14.00;79.20;;;;;;5039352;28;20565;-74
2024/02/07 10:12:56;;;;;;;16.05;9.45;;;13.40;80.00;;;;;;5043232;28;20022;-75
2024/02/07 10:15:25;;;;;;;15.95;8.35;;;12.70;82.80;;;;;;5037708;28;20164;-74
2024/02/07 10:17:51;;;;;;;21.15;9.35;;;12.70;83.70;;;;;;5041462;28;20430;-75
2024/02/07 10:20:18;;;;;;;20.20;9.38;;;12.90;82.40;;;;;;5036705;28;20022;-75
2024/02/07 10:22:43;;;;;;;21.27;9.40;;;12.80;82.50;;;;;;5029964;28;20030;-74
2024/02/07 10:25:11;;;;;;;25.90;9.10;;;12.80;82.00;;;;;;5030562;28;20398;-74
2024/02/07 10:27:37;;;;;;;17.85;8.48;;;13.60;80.30;;;;;;5030769;28;20116;-74
2024/02/07 10:30:08;;;;;;;16.00;8.20;;;13.60;79.80;;;;;;5036244;28;20136;-74
2024/02/07 10:32:34;;;;;;;22.20;8.52;;;13.10;81.50;;;;;;5029557;28;20049;-74
2024/02/07 10:35:02;;;;;;;18.00;7.88;;;12.80;82.50;;;;;;5035020;28;20041;-73
2024/02/07 10:37:37;;;;;;;14.82;7.30;;;12.90;82.60;;;;;;5031501;28;20538;-74
2024/02/07 10:40:04;;;;;;;20.77;7.32;;;13.10;82.00;;;;;;5037250;28;20437;-74
2024/02/07 10:42:29;;;;;;;18.73;8.65;;;13.40;81.10;;;;;;5035498;28;20075;-75
2024/02/07 10:45:09;;;;;;;17.23;6.13;;;13.80;80.00;;;;;;5027429;28;20049;-74
2024/02/07 10:47:36;;;;;;;11.57;5.70;;;14.00;78.20;;;;;;5045184;28;20064;-74
2024/02/07 10:50:02;;;;;;;14.50;5.93;;;13.90;77.20;;;;;;5031801;28;20029;-73
2024/02/07 10:52:28;;;;;;;12.02;5.40;;;13.80;77.80;;;;;;5027441;28;20069;-74
2024/02/07 10:54:58;;;;;;;14.97;5.43;;;13.80;79.10;;;;;;5036960;28;20107;-73
2024/02/07 10:57:30;;;;;;;16.65;6.18;;;13.80;79.10;;;;;;5030914;28;20780;-73
2024/02/07 10:59:57;;;;;;;16.33;5.13;;;13.60;80.30;;;;;;5037845;28;20025;-74
2024/02/07 11:02:24;;;;;;;12.80;4.38;;;13.40;81.00;;;;;;5038642;28;20026;-74
2024/02/07 11:04:50;;;;;;;11.32;5.13;;;13.30;79.10;;;;;;5034847;28;20095;-73
2024/02/07 11:07:16;;;;;;;;;;;13.20;79.50;;;;;;5064476;28;20134;-73
2024/02/07 11:09:45;;;;;;;13.70;3.05;;;13.00;78.30;;;;;;5037813;28;19913;-73
2024/02/07 11:12:14;;;;;;;15.18;3.90;;;12.80;78.30;;;;;;5035728;28;20017;-74
2024/02/07 11:14:47;;;;;;;16.13;4.13;;;13.00;80.90;;;;;;5033485;28;20041;-74
2024/02/07 11:17:16;;;;;;;12.50;3.58;;;13.00;80.50;;;;;;5038019;28;20059;-74
2024/02/07 11:19:45;;;;;;;14.35;4.20;;;13.00;78.70;;;;;;5030711;28;20061;-75
2024/02/07 11:22:18;;;;;;;8.57;3.92;;;13.20;80.60;;;;;;5032245;28;20029;-74
2024/02/07 11:24:45;;;;;;;9.40;3.28;;;13.50;81.00;;;;;;5029384;28;20044;-74
2024/02/07 11:27:12;;;;;;;14.50;3.40;;;13.70;78.90;;;;;;5034760;28;20033;-74
2024/02/07 11:29:38;;;;;;;11.63;2.78;;;14.00;80.40;;;;;;5034100;28;20029;-73
2024/02/07 11:32:05;;;;;;;9.50;3.17;;;14.00;77.20;;;;;;5034044;28;20063;-74
2024/02/07 11:34:31;;;;;;;7.07;3.35;;;14.00;76.90;;;;;;5036885;28;20045;-73
2024/02/07 11:37:05;;;;;;;10.10;3.67;;;14.00;78.30;;;;;;5041352;28;20028;-73
2024/02/07 11:39:37;;;;;;;9.30;3.40;;;14.10;75.60;;;;;;5038983;28;20052;-73
2024/02/07 11:42:14;;;;;;;9.93;2.55;;;14.10;76.00;;;;;;5042545;28;20029;-73
2024/02/07 11:44:53;;;;;;;7.40;2.70;;;14.10;75.40;;;;;;5034305;28;20095;-74
2024/02/07 11:47:23;;;;;;;5.97;2.78;;;14.00;78.40;;;;;;5039756;28;20048;-74
2024/02/07 11:49:58;;;;;;;11.07;2.88;;;13.90;78.00;;;;;;5036163;28;20033;-74
2024/02/07 11:52:28;;;;;;;12.00;3.05;;;13.70;79.30;;;;;;5034576;28;20399;-73
2024/02/07 11:54:59;;;;;;;7.47;2.92;;;13.40;78.00;;;;;;5037853;28;20376;-74
2024/02/07 11:57:25;;;;;;;11.98;2.95;;;13.20;79.60;;;;;;5042304;28;20063;-74
2024/02/07 11:59:51;;;;;;;6.18;2.28;;;13.00;79.30;;;;;;5039787;28;20122;-74
2024/02/07 12:02:17;;;;;;;7.13;2.27;;;12.80;78.30;;;;;;5038676;28;20038;-74
2024/02/07 12:04:44;;;;;;;7.28;2.53;;;12.60;79.60;;;;;;5036966;28;20055;-73
2024/02/07 12:07:12;;;;;;;14.98;3.15;;;12.70;78.70;;;;;;5034989;28;20108;-74
2024/02/07 12:09:37;;;;;;;12.05;2.38;;;12.70;80.30;;;;;;5036798;28;20167;-74
2024/02/07 12:12:03;;;;;;;14.13;3.20;;;12.70;79.60;;;;;;5036927;28;20108;-74
2024/02/07 12:14:29;;;;;;;5.57;1.92;;;12.60;79.60;;;;;;5041353;28;20134;-74
2024/02/07 12:16:55;;;;;;;10.33;2.50;;;12.60;80.40;;;;;;5037135;28;20064;-74
2024/02/07 12:19:20;;;;;;;8.73;2.15;;;12.60;79.40;;;;;;5036000;28;20024;-74
2024/02/07 12:21:46;;;;;;;9.93;2.27;;;12.50;78.40;;;;;;5038251;28;20048;-73
2024/02/07 12:24:14;;;;;;;7.30;3.17;;;12.30;77.50;;;;;;5070079;28;20056;-74
2024/02/07 12:26:40;;;;;;;8.07;2.10;;;12.40;79.00;;;;;;5028670;28;20417;-74
2024/02/07 12:29:06;;;;;;;11.13;2.27;;;12.50;79.70;;;;;;5038466;28;20029;-74
2024/02/07 12:31:33;;;;;;;11.48;2.50;;;12.60;80.60;;;;;;5036483;28;20025;-74
2024/02/07 12:33:59;;;;;;;8.55;2.60;;;12.70;79.30;;;;;;5038981;28;20037;-74
2024/02/07 12:36:24;;;;;;;11.07;2.20;;;12.70;79.90;;;;;;5033213;28;20051;-74
2024/02/07 12:38:50;;;;;;;6.33;2.83;;;12.60;79.60;;;;;;5036358;28;20037;-74
2024/02/07 12:41:16;;;;;;;12.15;2.38;;;12.60;80.90;;;;;;5035516;28;20021;-74
2024/02/07 12:43:43;;;;;;;6.50;2.50;;;12.70;80.00;;;;;;5032805;28;20033;-75
2024/02/07 12:46:09;;;;;;;4.97;2.00;;;12.70;79.20;;;;;;5036962;28;20033;-73
2024/02/07 12:48:35;;;;;;;7.50;2.50;;;12.80;80.80;;;;;;5047016;28;20088;-74
2024/02/07 12:51:02;;;;;;;9.23;2.40;;;12.90;81.20;;;;;;5058971;28;20033;-74
2024/02/07 12:53:28;;;;;;;6.60;2.13;;;13.00;80.80;;;;;;5033777;28;20312;-75
2024/02/07 12:55:54;;;;;;;7.47;2.43;;;13.10;80.00;;;;;;5056018;28;20588;-75
2024/02/07 12:58:20;;;;;;;6.70;2.23;;;13.10;77.40;;;;;;5038467;28;20062;-74
2024/02/07 13:00:45;;;;;;;6.50;1.80;;;13.20;75.10;;;;;;5034337;28;20545;-72
2024/02/07 13:03:12;;;;;;;10.32;2.13;;;13.30;77.70;;;;;;5032625;28;20068;-75
2024/02/07 13:05:39;;;;;;;6.47;2.15;;;13.40;75.30;;;;;;5030499;28;20048;-73
2024/02/07 13:08:05;;;;;;;8.88;2.00;;;13.60;76.80;;;;;;5048206;28;20388;-73
2024/02/07 13:10:31;;;;;;;4.05;2.03;;;13.70;75.50;;;;;;5032844;28;20609;-73
2024/02/07 13:12:56;;;;;;;11.00;3.25;;;13.60;74.80;;;;;;5034645;28;20041;-73
2024/02/07 13:15:22;;;;;;;10.80;1.90;;;13.60;74.90;;;;;;5040259;28;20104;-72
2024/02/07 13:17:48;;;;;;;8.27;2.10;;;13.50;74.60;;;;;;5040997;28;20036;-73
2024/02/07 13:20:15;;;;;;;8.73;2.45;;;13.40;76.30;;;;;;5039299;28;20021;-73
2024/02/07 13:22:41;;;;;;;6.20;2.38;;;13.40;74.20;;;;;;5038239;28;20088;-74
2024/02/07 13:25:09;;;;;;;8.95;2.10;;;13.40;73.90;;;;;;5037286;28;20030;-73
2024/02/07 13:27:35;;;;;;;8.85;2.03;;;13.20;74.00;;;;;;5036555;28;20059;-73
2024/02/07 13:30:02;;;;;;;7.00;2.05;;;13.20;76.00;;;;;;5034410;28;20033;-73
2024/02/07 13:32:27;;;;;;;6.40;1.60;;;13.30;76.00;;;;;;5038358;28;20037;-73
2024/02/07 13:34:53;;;;;;;8.77;2.67;;;13.30;77.80;;;;;;5031868;28;20083;-74
2024/02/07 13:37:19;;;;;;;5.17;2.50;;;13.40;73.00;;;;;;5033649;28;20037;-73
2024/02/07 13:39:44;;;;;;;7.77;2.00;;;13.40;74.90;;;;;;5038479;28;20065;-73
2024/02/07 13:42:10;;;;;;;4.47;1.80;;;13.60;72.80;;;;;;5031418;28;20095;-73
2024/02/07 13:44:35;;;;;;;5.63;1.83;;;13.60;73.00;;;;;;5061796;28;20669;-73